• Join FlightAware (Why Join?)
  • Login
  • US Flag 
09:08PM EDT


 

Airport Tracker/Info


-or-


 

Live Flight TrackerFlight Track Log ✈ EJM685 ✈ 30-Nov-2013 ✈ TNCM / SXM - KTEB

Flight Track Log - Related Links

Times and Time Zones

All times are in EST time to prevent confusion due to time zone crossing. See the EJM685 flight status page for this flight to view local times or setup timezone preferences in your user account.

Time Position Orientation Groundspeed Altitude Reporting Facility
EST Latitude Longitude Course Direction KTS MPH feet Rate Location/Type
12:52PM 24.7550 -65.8220 351° North  Level Estimated
12:53PM 24.8787 -65.8245 359° North  Level FlightAware Approximate
12:54PM 24.9939 -65.8740 348° North  Level Estimated
12:55PM 25.1175 -65.8771 359° North  Level FlightAware Approximate
12:56PM 25.2327 -65.9270 349° North  Level Estimated
12:57PM 25.3563 -65.9304 359° North  Level FlightAware Approximate
12:58PM 25.4799 -65.9339 359° North  Level FlightAware Approximate
12:59PM 25.5948 -65.9846 349° North  Level Estimated
01:00PM 25.7184 -65.9893 358° North  Level FlightAware Approximate
01:01PM 25.8420 -65.9940 358° North  Level FlightAware Approximate
01:02PM 25.9656 -65.9986 358° North  Level FlightAware Approximate
01:03PM 26.0892 -66.0033 358° North  Level FlightAware Approximate
01:04PM 26.2128 -66.0080 358° North  Level FlightAware Approximate
01:05PM 26.3270 -66.0608 349° North  Level Estimated
01:06PM 26.4505 -66.0687 357° North  Level FlightAware Approximate
01:07PM 26.5740 -66.0766 357° North  Level FlightAware Approximate
01:08PM 26.6975 -66.0846 357° North  Level FlightAware Approximate
01:09PM 26.8209 -66.0925 357° North  Level FlightAware Approximate
01:10PM 26.9444 -66.1005 357° North  Level FlightAware Approximate
01:11PM 27.0678 -66.1085 357° North  Level FlightAware Approximate
01:12PM 27.1913 -66.1165 357° North  Level FlightAware Approximate
01:13PM 27.3148 -66.1245 357° North  Level FlightAware Approximate
01:13PM 27.3167 -64.9667 349° North 427 491 43,000  Level New York Oceanic (ODAPS)
01:14PM 27.4382 -66.1325 357° North  Level FlightAware Approximate
01:15PM 27.5617 -66.1406 357° North  Level FlightAware Approximate
01:16PM 27.6851 -66.1487 357° North  Level FlightAware Approximate
01:17PM 27.7979 -66.2061 321° Northwest  Level Estimated
01:18PM 27.9106 -66.2637 323° Northwest  Level Estimated
01:19PM 28.0321 -66.2895 349° North  Level FlightAware Approximate
01:20PM 28.3668 -65.1894 349° North 427 491 43,000  Level FlightAware Transoceanic
01:21PM 28.4835 -65.2145 349° North 427 491 43,000  Level FlightAware Transoceanic
01:22PM 28.6002 -65.2395 349° North 427 491 43,000  Level FlightAware Transoceanic
01:23PM 28.7168 -65.2647 349° North 427 491 43,000  Level FlightAware Transoceanic
01:24PM 28.8335 -65.2899 349° North 427 491 43,000  Level FlightAware Transoceanic
01:25PM 28.9501 -65.3151 349° North 427 491 43,000  Level FlightAware Transoceanic
01:26PM 29.0668 -65.3404 349° North 427 491 43,000  Level FlightAware Transoceanic
01:27PM 29.1834 -65.3658 349° North 427 491 43,000  Level FlightAware Transoceanic
01:28PM 29.3000 -65.3912 349° North 427 491 43,000  Level FlightAware Transoceanic
01:28PM 29.4089 -65.4097 349° North 470 541 43,000  Level New York Center
01:29PM 29.4167 -65.4167 349° North 427 491 43,000  Level FlightAware Transoceanic
01:29PM 29.5286 -65.4406 347° North 476 548 43,000  Level New York Center
01:30PM 29.5436 -65.4444 349° North 427 491 43,000  Level FlightAware Transoceanic
01:30PM 29.6714 -65.4681 350° North 474 545 43,000  Level New York Center
01:31PM 29.6706 -65.4723 349° North 427 491 43,000  Level FlightAware Transoceanic
01:31PM 29.7889 -65.4944 349° North 480 552 43,000  Level New York Center
01:32PM 29.7975 -65.5002 349° North 427 491 43,000  Level FlightAware Transoceanic
01:32PM 29.9361 -65.5314 348° North 474 545 43,000  Level New York Center
01:33PM 30.0683 -65.5594 350° North 472 543 43,000  Level New York Center
01:34PM 30.1839 -65.5839 350° North 472 543 43,000  Level New York Center
01:35PM 30.3289 -65.6211 348° North 472 543 43,000  Level New York Center
01:36PM 30.4611 -65.6497 349° North 472 543 43,000  Level New York Center
01:37PM 30.5769 -65.6767 349° North 465 535 43,100 300 Climbing New York Center
01:38PM 30.7175 -65.7047 350° North 479 551 43,600 480 Climbing New York Center
01:39PM 30.8394 -65.7339 348° North 479 551 44,100 540 Climbing New York Center
01:40PM 30.9842 -65.7644 350° North 469 540 44,700 420 Climbing New York Center
01:41PM 31.1125 -65.7933 349° North 469 540 45,000 120 Climbing New York Center
01:42PM 31.2344 -65.8231 348° North 480 552 45,000  Level New York Center
01:43PM 31.3794 -65.8536 350° North 474 545 45,000  Level New York Center
01:44PM 31.5078 -65.8853 348° North 474 545 45,000  Level New York Center
01:45PM 31.6233 -65.9081 350° North 469 540 45,000  Level New York Center
01:46PM 31.7683 -65.9439 348° North 474 545 45,000  Level New York Center
01:47PM 31.8986 -65.9731 349° North 474 545 45,000  Level New York Center
01:48PM 32.0081 -65.9964 350° North 469 540 45,000  Level New York Center
01:49PM 32.1508 -66.0278 349° North 464 534 45,000  Level New York Center
01:50PM 32.2667 -66.0556 349° North 464 534 45,000  Level New York Center
01:51PM 32.4094 -66.0872 349° North 474 545 45,100 180 Climbing New York Center
01:52PM 32.5358 -66.1172 349° North 469 540 45,400 300 Climbing New York Center
01:53PM 32.6514 -66.1453 348° North 467 537 45,700 300 Climbing New York Center
01:54PM 32.7903 -66.1747 350° North 467 537 46,000 120 Climbing New York Center
01:55PM 32.9225 -66.2047 349° North 472 543 46,000  Level New York Center
01:56PM 33.0383 -66.2331 348° North 472 543 46,000  Level New York Center
01:57PM 33.1792 -66.2650 349° North 472 543 46,000  Level New York Center
01:58PM 33.3097 -66.2953 349° North 466 536 46,000  Level New York Center
01:59PM 33.4272 -66.3189 350° North 471 542 46,000  Level New York Center
02:00PM 33.5703 -66.3536 349° North 471 542 46,000  Level New York Center
02:01PM 33.6903 -66.3797 350° North 473 544 46,100 240 Climbing New York Center
02:02PM 33.8311 -66.4147 348° North 473 544 46,500 300 Climbing New York Center
02:03PM 33.9597 -66.4481 348° North 466 536 46,700 240 Climbing New York Center
02:04PM 34.0750 -66.4697 351° North 466 536 47,000 120 Climbing New York Center
02:05PM 34.2161 -66.5025 349° North 464 534 47,000  Level New York Center
02:06PM 34.3444 -66.5336 349° North 464 534 47,000  Level New York Center
02:07PM 34.4581 -66.5603 349° North 464 534 47,000  Level New York Center
02:08PM 34.5908 -66.6014 346° North 458 527 47,000  Level New York Center
02:09PM 34.7231 -66.6225 353° North 463 533 47,000  Level New York Center
02:10PM 34.8364 -66.6494 349° North 469 540 47,000  Level New York Center
02:11PM 34.8667 -66.6667 323° Northwest 455 524 47,000  Level New York Oceanic (ODAPS)
02:11PM 34.9519 -66.7322 330° Northwest 433 498 47,000  Level New York Center
02:12PM 35.0361 -66.8142 323° Northwest 438 504 47,000  Level New York Center
02:14PM 35.2055 -66.9732 323° Northwest  Level FlightAware Approximate
02:21PM 35.8808 -67.6159 322° Northwest  Level FlightAware Approximate
02:22PM 35.9770 -67.7085 322° Northwest  Level FlightAware Approximate
02:23PM 36.0731 -67.8015 322° Northwest  Level FlightAware Approximate
02:24PM 36.1692 -67.8946 322° Northwest  Level FlightAware Approximate
02:25PM 36.2652 -67.9880 322° Northwest  Level FlightAware Approximate
02:26PM 36.3611 -68.0816 322° Northwest  Level FlightAware Approximate
02:27PM 36.4569 -68.1755 322° Northwest  Level FlightAware Approximate
02:28PM 36.5527 -68.2696 322° Northwest  Level FlightAware Approximate
02:29PM 36.6482 -68.3641 322° Northwest  Level FlightAware Approximate
02:29PM 36.5667 -68.2833 322° Northwest 449 517 47,000  Level New York Oceanic (ODAPS)
02:30PM 36.7437 -68.4588 322° Northwest  Level FlightAware Approximate
02:31PM 36.8391 -68.5538 321° Northwest  Level FlightAware Approximate
02:32PM 36.9344 -68.6491 321° Northwest  Level FlightAware Approximate
02:33PM 37.0297 -68.7446 321° Northwest  Level FlightAware Approximate
02:34PM 37.1248 -68.8403 321° Northwest  Level FlightAware Approximate
02:35PM 37.2199 -68.9362 321° Northwest  Level FlightAware Approximate
02:36PM 37.3551 -69.0655 321° Northwest 449 517 47,000  Level FlightAware Transoceanic
02:37PM 37.4534 -69.1645 321° Northwest 449 517 47,000  Level FlightAware Transoceanic
02:38PM 37.5515 -69.2636 321° Northwest 449 517 47,000  Level FlightAware Transoceanic
02:39PM 37.6495 -69.3631 321° Northwest 449 517 47,000  Level FlightAware Transoceanic
02:40PM 37.7474 -69.4628 321° Northwest 449 517 47,000  Level FlightAware Transoceanic
02:41PM 37.8453 -69.5628 321° Northwest 449 517 47,000  Level FlightAware Transoceanic
02:42PM 37.9431 -69.6630 321° Northwest 449 517 47,000  Level FlightAware Transoceanic
02:43PM 38.0408 -69.7635 321° Northwest 449 517 47,000  Level FlightAware Transoceanic
02:43PM 38.0233 -69.7286 298° West 477 549 47,000  Level New York Center
02:44PM 38.1384 -69.8643 321° Northwest 449 517 47,000  Level FlightAware Transoceanic
02:44PM 38.1203 -69.8247 322° Northwest 464 534 47,000  Level New York Center
02:45PM 38.2359 -69.9653 321° Northwest 449 517 47,000  Level FlightAware Transoceanic
02:45PM 38.2125 -69.9242 320° Northwest 449 517 47,000  Level New York Center
02:46PM 38.3333 -70.0667 298° West 449 517 47,000  Level FlightAware Transoceanic
02:46PM 38.2822 -70.0503 305° West 437 503 47,000  Level New York Center
02:47PM 38.3877 -70.1975 298° West 449 517 47,000  Level FlightAware Transoceanic
02:47PM 38.3183 -70.1903 288° West 415 478 47,000  Level New York Center
02:48PM 38.3544 -70.3303 288° West 421 484 47,000  Level New York Center
02:49PM 38.3881 -70.4786 286° West 426 490 47,000  Level New York Center
02:50PM 38.4239 -70.6242 287° West 426 490 47,000  Level New York Center
02:51PM 38.4614 -70.7594 290° West 421 484 47,000  Level New York Center
02:52PM 38.4906 -70.9081 284° West 421 484 47,000  Level New York Center
02:53PM 38.5256 -71.0514 287° West 421 484 47,000 -540 Level New York Center
02:54PM 38.5625 -71.1925 289° West 421 484 46,000 -1,140 Descending New York Center
02:55PM 38.5994 -71.3333 289° West 421 484 44,800 -1,200 Descending New York Center
02:56PM 38.6319 -71.4747 286° West 416 479 43,600 -1,440 Descending New York Center
02:57PM 38.6644 -71.6158 286° West 421 484 42,000 -1,560 Descending New York Center
02:58PM 38.7008 -71.7628 288° West 421 484 40,500 -1,500 Descending New York Center
02:59PM 38.7350 -71.8989 288° West 421 484 39,100 -1,140 Descending New York Center
03:00PM 38.7900 -72.0278 299° West 416 479 38,300 -600 Descending New York Center
03:01PM 38.8636 -72.1517 307° West 417 480 38,000 -180 Descending New York Center
03:02PM 38.9372 -72.2681 309° West 423 487 38,000 -540 Level New York Center
03:03PM 39.0064 -72.3922 306° West 428 493 37,000 -2,100 Descending New York Center
03:04PM 39.0775 -72.5144 307° West 428 493 33,800 -3,300 Descending New York Center
03:05PM 39.1486 -72.6367 307° West 428 493 30,500 -3,240 Descending New York Center
03:06PM 39.2194 -72.7592 307° West 428 493 27,400 -3,060 Descending New York Center
03:07PM 39.2844 -72.8681 308° West 416 479 24,400 -2,940 Descending New York Center
03:08PM 39.3489 -72.9803 307° West 402 463 21,600 -2,880 Descending New York Center
03:09PM 39.4156 -73.1006 306° West 389 448 18,700 -2,760 Descending New York Center
03:10PM 39.4717 -73.2047 305° West 377 434 16,100 -2,580 Descending New York Center
03:11PM 39.5242 -73.2872 310° West 351 404 13,600 -2,460 Descending New York Center
03:12PM 39.5783 -73.3833 306° West 339 390 11,200 -1,860 Descending New York Center
03:13PM 39.6383 -73.4908 306° West 339 390 9,900 -660 Descending New York Center
03:14PM 39.6925 -73.5847 307° West 334 384 9,900 -300 Level New York Center
03:15PM 39.7444 -73.6786 306° West 334 384 9,300 -840 Descending New York Center
03:16PM 39.7944 -73.7644 307° West 320 368 8,300 -960 Descending New York Center
03:17PM 39.8383 -73.8392 307° West 279 321 7,400 -900 Descending New York Center
03:18PM 39.8800 -73.9142 306° West 266 306 6,600 -1,020 Descending New York Center
03:19PM 39.9236 -73.9947 305° West 261 300 5,400 -1,200 Descending New York Center
03:20PM 39.9614 -74.0614 306° West 261 300 4,300 -720 Descending New York Center
03:21PM 40.0092 -74.1450 307° West 261 300 4,000 -180 Descending New York Center
03:22PM 40.0506 -74.2200 306° West 266 306 4,000  Level New York Center
03:23PM 40.0922 -74.2956 306° West 266 306 4,000  Level New York Center
03:24PM 40.1297 -74.3653 305° West 266 306 4,000  Level New York Center
03:25PM 40.1833 -74.4667 305° West 258 297 4,000  Level New York TRACON
03:26PM 40.2333 -74.5333 315° West 267 307 4,000  Level New York TRACON
03:27PM 40.2833 -74.5833 323° Northwest 262 302 4,000  Level New York TRACON
03:28PM 40.3667 -74.6333 335° Northwest 266 306 4,000  Level New York TRACON
03:29PM 40.4122 -74.6553 340° North 261 300 4,000  Level New York Center
03:30PM 40.5000 -74.7000 339° North 271 312 4,000  Level New York TRACON
03:31PM 40.5667 -74.7167 349° North 268 308 4,000  Level New York TRACON
03:32PM 40.6333 -74.7000 11° North 271 312 4,000  Level New York TRACON
03:33PM 40.6914 -74.6603 27° Northeast 257 296 4,000  Level New York Center
03:34PM 40.7531 -74.6225 25° Northeast 263 303 4,000  Level New York Center
03:35PM 40.8214 -74.5661 32° Northeast 263 303 4,000 -120 Level New York Center
03:36PM 40.8692 -74.5031 45° Northeast 263 303 3,800 -360 Descending New York Center
03:37PM 40.9197 -74.4233 50° Northeast 258 297 3,300 -420 Descending New York Center
03:38PM 40.9469 -74.3481 64° Northeast 252 290 3,000 -420 Descending New York Center
03:39PM 40.9667 -74.2333 77° East 221 254 2,400 -480 Descending New York TRACON
03:40PM 40.9667 -74.1667 90° East 199 229 2,000 -240 Descending New York TRACON
03:41PM 40.9667 -74.1000 90° East 200 230 2,000 -60 Level New York TRACON
03:42PM 40.9500 -74.0667 123° Southeast 145 167 1,900 -420 Descending New York TRACON
03:43PM 40.9167 -74.0500 159° South 146 168 1,200 -780 Descending New York TRACON
03:44PM 40.8667 -74.0500 180° South 126 145 400 -780 Descending New York TRACON
03:47PM 40.8500 -74.0500 45° Northeast  Level FlightAware Approximate
03:54PM 40.8501 -74.0608 45° Northeast  Level Estimated
03:55PM 40.8501 -74.0608 45° Northeast  Level Estimated
03:56PM 40.8501 -74.0608 45° Northeast  Level Estimated
03:57PM 40.8501 -74.0608 45° Northeast  Level Estimated
03:58PM 40.8501 -74.0608 45° Northeast  Level Estimated